Time;durP1;ratioP1;P1;durP2;ratioP2;P2;SDS_P1;SDS_P2;PMS_P1;PMS_P2;Temp;Humidity;BMP_temperature;BMP_pressure;BME280_temperature;BME280_humidity;BME280_pressure;Samples;Min_cycle;Max_cycle;Signal;HPM_P1;HPM_P2
2021/04/29 00:00:23;;;;;;;5.40;3.10;;;21.10;45.00;;;;;;4999288;28;20421;-68
2021/04/29 00:02:49;;;;;;;3.90;3.50;;;21.10;44.80;;;;;;4996490;28;20428;-69
2021/04/29 00:05:17;;;;;;;3.00;2.80;;;21.10;44.60;;;;;;5000244;28;20426;-69
2021/04/29 00:07:43;;;;;;;2.90;2.70;;;21.10;45.00;;;;;;4992946;28;20810;-69
2021/04/29 00:10:10;;;;;;;3.30;3.00;;;21.10;44.80;;;;;;5007164;28;20441;-69
2021/04/29 00:12:36;;;;;;;3.38;2.60;;;21.10;44.60;;;;;;4987221;28;20418;-69
2021/04/29 00:15:04;;;;;;;7.20;3.17;;;21.10;44.80;;;;;;5012090;28;21871;-68
2021/04/29 00:17:31;;;;;;;3.10;2.80;;;21.10;44.90;;;;;;5002142;28;20415;-69
2021/04/29 00:19:57;;;;;;;3.17;2.70;;;21.10;44.70;;;;;;4997985;28;20473;-70
2021/04/29 00:22:23;;;;;;;4.40;2.80;;;21.20;44.70;;;;;;4986265;28;20424;-68
2021/04/29 00:24:49;;;;;;;2.95;2.75;;;21.20;44.70;;;;;;5000913;28;20405;-69
2021/04/29 00:27:15;;;;;;;3.50;3.20;;;21.20;44.70;;;;;;5000675;28;20443;-69
2021/04/29 00:29:42;;;;;;;3.60;3.03;;;21.20;44.40;;;;;;5000169;28;20431;-68
2021/04/29 00:32:08;;;;;;;3.40;3.10;;;21.20;44.80;;;;;;4991005;28;20561;-68
2021/04/29 00:34:35;;;;;;;3.90;2.78;;;21.20;44.60;;;;;;4998431;28;20415;-69
2021/04/29 00:37:01;;;;;;;3.05;2.75;;;21.10;44.60;;;;;;5000746;28;20421;-70
2021/04/29 00:39:27;;;;;;;3.90;2.80;;;21.10;44.80;;;;;;4998649;28;20432;-70
2021/04/29 00:41:53;;;;;;;3.00;2.75;;;21.10;44.80;;;;;;4995935;28;20479;-69
2021/04/29 00:44:19;;;;;;;5.37;3.20;;;21.10;44.70;;;;;;5008246;28;20512;-69
2021/04/29 00:46:45;;;;;;;2.92;2.60;;;21.10;44.90;;;;;;4988216;28;20410;-69
2021/04/29 00:49:12;;;;;;;3.90;3.50;;;21.10;44.90;;;;;;5014239;28;20419;-68
2021/04/29 00:51:38;;;;;;;3.15;2.85;;;21.10;44.80;;;;;;4994604;28;20482;-69
2021/04/29 00:54:05;;;;;;;3.60;2.70;;;21.10;44.90;;;;;;4997329;28;20416;-69
2021/04/29 00:56:31;;;;;;;3.08;2.80;;;21.10;44.90;;;;;;5002397;28;20525;-69
2021/04/29 00:58:57;;;;;;;4.00;2.35;;;21.10;44.90;;;;;;5000117;28;20415;-70
2021/04/29 01:01:23;;;;;;;2.60;2.50;;;21.10;44.60;;;;;;4994966;28;20408;-69
2021/04/29 01:03:51;;;;;;;2.90;2.70;;;21.20;44.40;;;;;;4985793;28;20449;-70
2021/04/29 01:06:19;;;;;;;3.35;2.83;;;21.20;44.60;;;;;;4980915;28;20902;-69
2021/04/29 01:08:50;;;;;;;3.72;3.42;;;21.20;44.70;;;;;;4975192;28;20425;-69
2021/04/29 01:11:17;;;;;;;3.25;2.80;;;21.20;44.60;;;;;;4992328;28;20797;-69
2021/04/29 01:13:48;;;;;;;2.70;2.50;;;21.20;44.60;;;;;;4985049;28;20415;-69
2021/04/29 01:16:15;;;;;;;2.85;2.65;;;21.20;44.70;;;;;;4995322;28;20974;-69
2021/04/29 01:18:41;;;;;;;2.83;2.60;;;21.20;44.70;;;;;;5003760;28;20415;-68
2021/04/29 01:21:12;;;;;;;3.08;2.88;;;21.20;44.40;;;;;;4998106;28;20422;-69
2021/04/29 01:23:45;;;;;;;5.60;3.30;;;21.20;44.30;;;;;;4991064;28;20425;-69
2021/04/29 01:26:14;;;;;;;3.03;2.78;;;21.20;44.20;;;;;;4996855;28;20803;-69
2021/04/29 01:28:41;;;;;;;2.90;2.70;;;21.20;44.10;;;;;;4999628;28;21089;-69
2021/04/29 01:31:07;;;;;;;3.10;2.47;;;21.20;44.10;;;;;;4994901;28;20426;-69
2021/04/29 01:33:33;;;;;;;3.53;2.50;;;21.20;44.30;;;;;;4992817;28;20415;-69
2021/04/29 01:35:59;;;;;;;3.20;2.90;;;21.20;44.40;;;;;;4996615;28;20415;-69
2021/04/29 01:38:25;;;;;;;3.60;3.30;;;21.20;44.40;;;;;;4975533;28;20648;-69
2021/04/29 01:40:51;;;;;;;2.83;2.60;;;21.20;44.40;;;;;;4982345;28;20419;-69
2021/04/29 01:43:17;;;;;;;3.88;2.80;;;21.20;44.30;;;;;;4991278;28;20421;-69
2021/04/29 01:45:44;;;;;;;6.72;2.80;;;21.10;44.40;;;;;;4985003;28;20422;-68
2021/04/29 01:48:11;;;;;;;3.55;2.72;;;21.10;44.50;;;;;;4996841;28;21536;-69
2021/04/29 01:50:37;;;;;;;3.00;2.70;;;21.10;44.40;;;;;;4997836;28;20413;-69
2021/04/29 01:53:03;;;;;;;3.47;3.17;;;21.10;44.30;;;;;;5000362;28;20415;-69
2021/04/29 01:55:30;;;;;;;3.10;2.80;;;21.10;44.20;;;;;;4998389;28;20467;-70
2021/04/29 01:57:56;;;;;;;2.72;2.53;;;21.20;44.40;;;;;;4983908;28;20977;-69
2021/04/29 02:00:23;;;;;;;3.00;2.80;;;21.20;44.30;;;;;;4986287;28;20924;-69
2021/04/29 02:02:50;;;;;;;3.30;2.90;;;21.20;44.20;;;;;;5001976;28;20429;-69
2021/04/29 02:05:16;;;;;;;5.60;3.00;;;21.20;44.30;;;;;;4998219;28;20495;-70
2021/04/29 02:07:43;;;;;;;2.70;2.50;;;21.20;44.20;;;;;;5005912;28;20416;-69
2021/04/29 02:10:09;;;;;;;3.65;3.35;;;21.20;44.40;;;;;;4999787;28;20410;-70
2021/04/29 02:12:37;;;;;;;3.38;3.08;;;21.20;44.30;;;;;;4986099;28;20422;-69
2021/04/29 02:15:05;;;;;;;5.60;2.95;;;21.10;44.30;;;;;;5003244;28;21202;-69
2021/04/29 02:17:34;;;;;;;3.90;3.50;;;21.10;44.40;;;;;;5000573;28;20427;-69
2021/04/29 02:20:02;;;;;;;3.90;3.38;;;21.10;44.40;;;;;;5001216;28;20427;-70
2021/04/29 02:22:28;;;;;;;3.70;3.30;;;21.10;44.40;;;;;;4989074;28;20423;-69
2021/04/29 02:24:54;;;;;;;3.37;3.07;;;21.10;44.40;;;;;;5003475;28;20430;-69
2021/04/29 02:27:20;;;;;;;4.25;3.25;;;21.10;44.30;;;;;;4999338;28;20449;-69
2021/04/29 02:29:47;;;;;;;4.65;3.40;;;21.10;44.30;;;;;;4992712;28;20424;-69
2021/04/29 02:32:15;;;;;;;3.60;3.30;;;21.10;44.20;;;;;;5006685;28;20413;-69
2021/04/29 02:34:42;;;;;;;4.05;3.38;;;21.10;44.30;;;;;;4986006;28;21003;-70
2021/04/29 02:37:09;;;;;;;3.10;2.90;;;21.10;44.30;;;;;;4995618;28;20421;-70
2021/04/29 02:39:35;;;;;;;3.58;3.28;;;21.10;44.20;;;;;;5010623;28;20738;-68
2021/04/29 02:42:01;;;;;;;5.10;3.00;;;21.10;44.40;;;;;;4985348;28;21513;-70
2021/04/29 02:44:27;;;;;;;3.83;3.47;;;21.10;44.30;;;;;;5007018;28;20424;-69
2021/04/29 02:46:53;;;;;;;3.85;2.97;;;21.10;44.30;;;;;;5004221;28;20776;-69
2021/04/29 02:49:19;;;;;;;3.10;2.90;;;21.10;44.20;;;;;;5002448;28;20769;-69
2021/04/29 02:51:45;;;;;;;3.33;3.03;;;21.10;44.20;;;;;;4991836;28;20748;-67
2021/04/29 02:54:12;;;;;;;5.00;2.80;;;21.10;44.20;;;;;;5000809;28;20563;-70
2021/04/29 02:56:39;;;;;;;3.10;2.80;;;21.10;44.20;;;;;;5006714;28;20837;-68
2021/04/29 02:59:05;;;;;;;3.00;2.70;;;21.10;44.20;;;;;;5001134;28;20415;-70
2021/04/29 03:01:32;;;;;;;3.35;2.72;;;21.10;44.20;;;;;;4996893;28;20477;-69
2021/04/29 03:03:58;;;;;;;4.20;3.13;;;21.10;44.20;;;;;;4996617;28;20435;-69
2021/04/29 03:06:25;;;;;;;3.10;2.75;;;21.10;44.20;;;;;;5004041;28;20479;-69
2021/04/29 03:08:51;;;;;;;3.30;3.10;;;21.10;44.10;;;;;;4999962;28;20427;-69
2021/04/29 03:11:18;;;;;;;3.42;3.22;;;21.10;44.10;;;;;;5008741;28;20480;-69
2021/04/29 03:13:44;;;;;;;3.50;3.03;;;21.10;44.20;;;;;;4992766;28;20405;-70
2021/04/29 03:16:10;;;;;;;3.85;3.45;;;21.20;44.20;;;;;;5004473;28;20785;-69
2021/04/29 03:18:36;;;;;;;4.77;3.60;;;21.20;44.10;;;;;;5001738;28;20418;-69
2021/04/29 03:21:02;;;;;;;3.60;3.28;;;21.20;44.10;;;;;;5001951;28;20528;-68
2021/04/29 03:23:28;;;;;;;3.30;3.00;;;21.20;44.10;;;;;;4993568;28;20428;-69
2021/04/29 03:25:55;;;;;;;3.63;3.30;;;21.20;45.00;;;;;;5002654;28;20411;-69
2021/04/29 03:28:22;;;;;;;3.60;3.30;;;21.20;44.20;;;;;;4997825;28;20416;-69
2021/04/29 03:30:48;;;;;;;3.60;3.10;;;21.20;44.10;;;;;;4997346;28;20411;-68
2021/04/29 03:33:14;;;;;;;3.67;3.10;;;21.20;44.10;;;;;;4998684;28;21590;-67
2021/04/29 03:35:40;;;;;;;3.50;3.30;;;21.30;44.20;;;;;;5005793;28;20410;-69
2021/04/29 03:38:06;;;;;;;3.70;3.40;;;21.30;44.10;;;;;;5001931;28;20407;-67
2021/04/29 03:40:33;;;;;;;6.63;3.10;;;21.30;44.10;;;;;;5004483;28;20811;-69
2021/04/29 03:42:59;;;;;;;3.55;3.25;;;21.30;44.10;;;;;;5000452;28;20432;-69
2021/04/29 03:45:26;;;;;;;3.30;3.10;;;21.30;44.10;;;;;;5001275;28;20471;-69
2021/04/29 03:47:52;;;;;;;3.00;2.80;;;21.30;44.00;;;;;;4995460;28;20451;-69
2021/04/29 03:50:18;;;;;;;5.20;3.23;;;21.30;44.20;;;;;;5005389;28;21515;-69
2021/04/29 03:52:44;;;;;;;3.65;3.35;;;21.30;43.90;;;;;;4979768;28;21039;-69
2021/04/29 03:55:11;;;;;;;3.65;3.40;;;21.40;44.00;;;;;;4998245;28;20414;-69
2021/04/29 03:57:37;;;;;;;3.80;3.45;;;21.40;43.90;;;;;;4997752;28;20425;-68
2021/04/29 04:00:04;;;;;;;3.92;3.20;;;21.40;43.90;;;;;;5001631;28;20496;-69
2021/04/29 04:02:31;;;;;;;4.55;3.60;;;21.30;43.90;;;;;;4983901;28;20440;-70
2021/04/29 04:04:57;;;;;;;3.67;3.10;;;21.30;43.90;;;;;;4987887;28;20411;-70
2021/04/29 04:07:23;;;;;;;4.72;3.38;;;21.30;43.90;;;;;;4996774;28;20444;-69
2021/04/29 04:09:49;;;;;;;3.40;3.20;;;21.30;43.70;;;;;;4993221;28;20961;-69
2021/04/29 04:12:16;;;;;;;4.05;3.65;;;21.30;44.00;;;;;;5000223;28;20913;-69
2021/04/29 04:14:42;;;;;;;3.55;3.30;;;21.30;43.90;;;;;;4991006;28;20487;-69
2021/04/29 04:17:08;;;;;;;3.45;3.10;;;21.30;43.90;;;;;;4993879;28;20424;-69
2021/04/29 04:19:35;;;;;;;3.27;3.07;;;21.30;43.90;;;;;;4995097;28;20418;-69
2021/04/29 04:22:01;;;;;;;3.67;3.38;;;21.30;43.80;;;;;;4995068;28;20711;-69
2021/04/29 04:24:27;;;;;;;3.47;3.17;;;21.30;43.90;;;;;;5007401;28;20429;-69
2021/04/29 04:26:53;;;;;;;3.63;3.30;;;21.40;43.90;;;;;;5002596;28;20438;-69
2021/04/29 04:29:19;;;;;;;3.47;3.28;;;21.40;43.80;;;;;;4973188;28;20415;-68
2021/04/29 04:31:45;;;;;;;3.60;3.30;;;21.40;43.60;;;;;;4984811;28;21527;-68
2021/04/29 04:34:12;;;;;;;3.42;3.13;;;21.50;43.70;;;;;;5003964;28;20474;-69
2021/04/29 04:36:38;;;;;;;4.90;3.30;;;21.50;43.60;;;;;;4986371;28;20961;-69
2021/04/29 04:39:05;;;;;;;6.32;3.28;;;21.50;43.60;;;;;;5012434;28;20833;-69
2021/04/29 04:41:31;;;;;;;4.50;3.80;;;21.50;43.60;;;;;;4991022;28;20456;-70
2021/04/29 04:43:57;;;;;;;3.50;3.20;;;21.40;43.50;;;;;;4995869;28;20416;-69
2021/04/29 04:46:23;;;;;;;3.58;3.25;;;21.40;43.60;;;;;;4998765;28;20405;-69
2021/04/29 04:48:49;;;;;;;3.70;3.40;;;21.30;43.60;;;;;;5000856;28;20423;-69
2021/04/29 04:51:16;;;;;;;5.38;3.53;;;21.30;43.70;;;;;;4997262;28;21466;-69
2021/04/29 04:53:43;;;;;;;4.10;3.70;;;21.30;43.70;;;;;;4988775;28;20418;-68
2021/04/29 04:56:09;;;;;;;4.50;3.60;;;21.30;43.70;;;;;;4997453;28;21259;-69
2021/04/29 04:58:35;;;;;;;4.57;3.67;;;21.30;43.80;;;;;;4999730;28;20477;-69
2021/04/29 05:01:01;;;;;;;3.75;3.20;;;21.30;43.70;;;;;;4996480;28;20415;-69
2021/04/29 05:03:27;;;;;;;3.50;3.20;;;21.30;43.70;;;;;;4976391;28;20438;-69
2021/04/29 05:05:53;;;;;;;3.40;3.20;;;21.30;43.80;;;;;;4999213;28;20425;-69
2021/04/29 05:08:19;;;;;;;4.05;3.40;;;21.30;43.70;;;;;;4993330;28;20437;-69
2021/04/29 05:10:46;;;;;;;4.30;3.50;;;21.40;43.70;;;;;;4997935;28;21011;-69
2021/04/29 05:13:12;;;;;;;4.55;3.53;;;21.40;43.60;;;;;;4979356;28;20829;-69
2021/04/29 05:15:39;;;;;;;3.50;3.20;;;21.40;43.50;;;;;;5002604;28;20424;-69
2021/04/29 05:18:05;;;;;;;3.97;3.65;;;21.50;43.40;;;;;;4998025;28;20426;-69
2021/04/29 05:20:31;;;;;;;5.25;4.10;;;21.50;43.30;;;;;;4996303;28;21020;-69
2021/04/29 05:22:57;;;;;;;3.93;3.57;;;21.60;43.30;;;;;;4985498;28;20412;-69
2021/04/29 05:25:24;;;;;;;4.03;3.63;;;21.60;43.30;;;;;;4981300;28;20416;-68
2021/04/29 05:27:51;;;;;;;4.20;3.90;;;21.50;43.30;;;;;;5000275;28;20456;-69
2021/04/29 05:30:18;;;;;;;4.22;3.40;;;21.40;43.30;;;;;;4996387;28;20424;-69
2021/04/29 05:32:44;;;;;;;4.70;4.30;;;21.40;43.40;;;;;;4977204;28;20409;-69
2021/04/29 05:35:11;;;;;;;3.72;3.22;;;21.40;43.50;;;;;;4992195;28;20848;-69
2021/04/29 05:37:37;;;;;;;4.30;3.90;;;21.30;44.60;;;;;;5001856;28;20426;-69
2021/04/29 05:40:04;;;;;;;5.20;3.53;;;21.30;43.50;;;;;;4999883;28;20516;-67
2021/04/29 05:42:30;;;;;;;4.97;4.43;;;21.30;43.50;;;;;;4984174;28;20417;-69
2021/04/29 05:44:57;;;;;;;4.28;3.85;;;21.30;43.50;;;;;;4995728;28;22031;-69
2021/04/29 05:47:23;;;;;;;4.30;3.90;;;21.30;44.30;;;;;;4992574;28;20421;-70
2021/04/29 05:49:49;;;;;;;3.92;3.53;;;21.30;43.60;;;;;;4989191;28;20411;-69
2021/04/29 05:52:15;;;;;;;4.20;3.70;;;21.30;43.60;;;;;;4980494;28;20438;-69
2021/04/29 05:54:41;;;;;;;4.33;3.90;;;21.20;43.70;;;;;;4980574;28;20423;-70
2021/04/29 05:57:07;;;;;;;5.50;3.22;;;21.20;43.70;;;;;;5003250;28;20423;-69
2021/04/29 05:59:34;;;;;;;3.70;3.40;;;21.30;43.70;;;;;;4995378;28;20423;-68
2021/04/29 06:02:01;;;;;;;4.20;3.80;;;21.30;43.60;;;;;;4987527;28;20427;-69
2021/04/29 06:04:28;;;;;;;3.70;3.50;;;21.20;43.70;;;;;;5001092;28;20412;-69
2021/04/29 06:06:54;;;;;;;4.50;3.90;;;21.30;43.70;;;;;;5002552;28;20459;-67
2021/04/29 06:09:20;;;;;;;6.65;3.70;;;21.30;43.70;;;;;;5004937;28;20456;-68
2021/04/29 06:11:46;;;;;;;4.20;3.80;;;21.30;43.80;;;;;;4995185;28;20435;-70
2021/04/29 06:14:13;;;;;;;3.97;3.50;;;21.30;43.80;;;;;;5000394;28;20419;-69
2021/04/29 06:16:39;;;;;;;4.10;3.70;;;21.30;43.80;;;;;;5000198;28;20426;-69
2021/04/29 06:19:06;;;;;;;3.95;3.60;;;21.30;43.80;;;;;;5001619;28;20506;-69
2021/04/29 06:21:32;;;;;;;4.50;4.10;;;21.30;43.80;;;;;;4998473;28;20520;-69
2021/04/29 06:23:58;;;;;;;5.37;3.87;;;21.30;43.70;;;;;;4997556;28;20437;-69
2021/04/29 06:26:24;;;;;;;7.07;3.60;;;21.20;43.60;;;;;;5002901;28;20425;-69
2021/04/29 06:28:50;;;;;;;4.50;4.07;;;21.20;43.60;;;;;;5000527;28;20415;-69
2021/04/29 06:31:17;;;;;;;4.45;4.05;;;21.20;43.70;;;;;;4996049;28;20427;-70
2021/04/29 06:33:43;;;;;;;4.60;4.20;;;21.30;43.70;;;;;;4993018;28;20411;-69
2021/04/29 06:36:10;;;;;;;3.97;3.58;;;21.20;43.70;;;;;;5006959;28;20407;-70
2021/04/29 06:38:36;;;;;;;4.40;3.70;;;21.20;43.90;;;;;;4997269;28;20418;-69
2021/04/29 06:41:03;;;;;;;3.93;3.40;;;21.20;43.90;;;;;;4987188;28;20441;-68
2021/04/29 06:43:29;;;;;;;5.80;4.10;;;21.20;43.90;;;;;;4980985;28;20951;-69
2021/04/29 06:45:55;;;;;;;3.70;3.40;;;21.20;44.00;;;;;;4999447;28;20411;-69
2021/04/29 06:48:21;;;;;;;3.90;3.60;;;21.20;44.00;;;;;;5002640;28;20427;-69
2021/04/29 06:50:48;;;;;;;3.47;3.17;;;21.20;44.00;;;;;;4999169;28;20495;-69
2021/04/29 06:53:15;;;;;;;4.13;3.25;;;21.20;44.00;;;;;;5003783;28;20435;-69
2021/04/29 06:55:41;;;;;;;4.00;3.60;;;21.20;44.00;;;;;;5004314;28;20403;-69
2021/04/29 06:58:07;;;;;;;3.60;3.30;;;21.20;44.00;;;;;;4996785;28;20409;-70
2021/04/29 07:00:34;;;;;;;3.93;3.63;;;21.30;44.10;;;;;;5003936;28;20430;-69
2021/04/29 07:03:00;;;;;;;3.65;3.45;;;21.20;44.10;;;;;;4996269;28;21064;-69
2021/04/29 07:05:26;;;;;;;3.88;3.55;;;21.20;44.20;;;;;;5002456;28;20425;-69
2021/04/29 07:07:53;;;;;;;4.05;3.65;;;21.20;44.20;;;;;;4996037;28;20428;-69
2021/04/29 07:10:20;;;;;;;4.30;3.78;;;21.20;44.20;;;;;;4998016;28;20411;-69
2021/04/29 07:12:47;;;;;;;3.80;3.50;;;21.20;44.20;;;;;;4995656;28;22275;-69
2021/04/29 07:15:14;;;;;;;3.80;3.50;;;21.20;44.40;;;;;;5008603;28;20852;-69
2021/04/29 07:17:41;;;;;;;6.10;3.60;;;21.20;44.30;;;;;;4998726;28;20764;-69
2021/04/29 07:20:08;;;;;;;3.78;3.40;;;21.20;44.30;;;;;;5000595;28;20433;-70
2021/04/29 07:22:34;;;;;;;3.80;3.50;;;21.20;44.30;;;;;;4995410;28;20913;-70
2021/04/29 07:25:01;;;;;;;4.00;3.10;;;21.30;44.30;;;;;;5003889;28;20431;-67
2021/04/29 07:27:27;;;;;;;4.07;3.70;;;21.30;44.40;;;;;;5005167;28;20561;-69
2021/04/29 07:29:54;;;;;;;4.40;4.03;;;21.20;44.30;;;;;;4996390;28;21044;-69
2021/04/29 07:32:20;;;;;;;3.85;3.58;;;21.20;44.30;;;;;;4991917;28;20907;-68
2021/04/29 07:34:46;;;;;;;3.85;3.47;;;21.20;44.40;;;;;;4999746;28;20914;-69
2021/04/29 07:37:12;;;;;;;3.73;3.20;;;21.20;44.40;;;;;;5006753;28;20423;-69
2021/04/29 07:39:38;;;;;;;3.10;2.90;;;21.20;44.40;;;;;;4988794;28;20422;-69
2021/04/29 07:42:05;;;;;;;4.13;3.72;;;21.20;44.40;;;;;;4997903;28;20423;-68
2021/04/29 07:44:32;;;;;;;3.70;3.50;;;21.30;44.50;;;;;;4995636;28;20423;-69
2021/04/29 07:46:59;;;;;;;3.42;3.13;;;21.30;44.40;;;;;;5014670;28;20469;-69
2021/04/29 07:49:25;;;;;;;3.67;3.47;;;21.30;44.40;;;;;;4998955;28;20499;-69
2021/04/29 07:51:52;;;;;;;3.60;3.40;;;21.30;44.50;;;;;;4989447;28;20420;-69
2021/04/29 07:54:18;;;;;;;3.63;3.33;;;21.30;44.50;;;;;;5002532;28;20981;-68
2021/04/29 07:56:44;;;;;;;3.55;3.25;;;21.20;44.50;;;;;;5002365;28;20915;-69
2021/04/29 07:59:10;;;;;;;3.70;3.40;;;21.20;44.60;;;;;;5002106;28;20433;-68
2021/04/29 08:01:37;;;;;;;3.95;3.65;;;21.20;44.70;;;;;;4998728;28;20958;-68
2021/04/29 08:04:04;;;;;;;3.80;3.50;;;21.20;44.90;;;;;;4995278;28;21109;-68
2021/04/29 08:06:30;;;;;;;5.77;3.50;;;21.10;44.90;;;;;;5000885;28;20422;-69
2021/04/29 08:08:56;;;;;;;4.00;3.60;;;21.10;45.00;;;;;;5004279;28;20419;-68
2021/04/29 08:11:22;;;;;;;3.72;3.42;;;21.10;45.00;;;;;;4994279;28;20425;-67
2021/04/29 08:13:48;;;;;;;4.15;3.28;;;21.10;45.00;;;;;;4984338;28;20411;-68
2021/04/29 08:16:15;;;;;;;3.70;3.40;;;21.10;45.00;;;;;;5006189;28;20419;-69
2021/04/29 08:18:42;;;;;;;3.30;3.00;;;21.10;44.90;;;;;;4998652;28;20419;-67
2021/04/29 08:21:08;;;;;;;3.30;3.10;;;21.20;45.00;;;;;;5001917;28;20439;-70
2021/04/29 08:23:34;;;;;;;4.03;3.35;;;21.20;44.90;;;;;;4993690;28;20974;-69
2021/04/29 08:26:00;;;;;;;3.95;3.55;;;21.20;44.90;;;;;;5003814;28;20424;-70
2021/04/29 08:28:26;;;;;;;3.47;3.27;;;21.20;44.90;;;;;;4999096;28;20459;-69
2021/04/29 08:30:53;;;;;;;3.90;3.60;;;21.20;44.90;;;;;;4994675;28;20446;-69
2021/04/29 08:33:19;;;;;;;4.00;3.60;;;21.20;45.80;;;;;;4990271;28;20416;-68
2021/04/29 08:35:46;;;;;;;4.15;3.75;;;21.20;45.10;;;;;;5000365;28;20423;-69
2021/04/29 08:38:12;;;;;;;3.57;3.10;;;21.20;45.10;;;;;;5000746;28;20492;-69
2021/04/29 08:40:38;;;;;;;3.60;3.30;;;21.20;45.20;;;;;;5001853;28;20477;-70
2021/04/29 08:43:04;;;;;;;4.13;3.72;;;21.20;45.10;;;;;;4992914;28;20411;-69
2021/04/29 08:45:30;;;;;;;4.15;3.08;;;21.20;45.00;;;;;;4997395;28;20428;-70
2021/04/29 08:47:57;;;;;;;3.60;3.40;;;21.20;45.00;;;;;;4996950;28;21281;-69
2021/04/29 08:50:23;;;;;;;3.40;3.10;;;21.20;45.00;;;;;;4980095;28;20416;-69
2021/04/29 08:52:50;;;;;;;3.78;3.45;;;21.20;45.00;;;;;;4995928;28;21064;-69
2021/04/29 08:55:17;;;;;;;3.42;3.10;;;21.30;45.00;;;;;;4998961;28;21143;-69
2021/04/29 08:57:43;;;;;;;3.30;3.00;;;21.30;45.00;;;;;;4999894;28;20946;-70
2021/04/29 09:00:11;;;;;;;3.80;3.50;;;21.30;44.90;;;;;;4997618;28;20419;-69
2021/04/29 09:02:38;;;;;;;3.05;2.85;;;21.30;44.90;;;;;;4991726;28;20973;-69
2021/04/29 09:05:12;;;;;;;3.40;3.20;;;21.30;44.90;;;;;;4996846;28;20472;-69
2021/04/29 09:07:38;;;;;;;3.20;3.00;;;21.30;44.80;;;;;;4986235;28;20550;-68
2021/04/29 09:10:07;;;;;;;3.10;2.90;;;21.40;44.90;;;;;;4997542;28;20411;-69
2021/04/29 09:12:33;;;;;;;3.40;3.10;;;21.40;44.80;;;;;;4981091;28;20799;-69
2021/04/29 09:14:59;;;;;;;3.60;3.40;;;21.40;44.70;;;;;;5001644;28;20402;-69
2021/04/29 09:17:25;;;;;;;3.58;3.38;;;21.40;44.70;;;;;;4996952;28;20838;-69
2021/04/29 09:19:52;;;;;;;3.03;2.83;;;21.40;44.80;;;;;;5002102;28;20428;-69
2021/04/29 09:22:18;;;;;;;3.40;3.20;;;21.40;44.80;;;;;;4989956;28;20448;-69
2021/04/29 09:24:44;;;;;;;3.00;2.80;;;21.40;44.90;;;;;;5003065;28;20496;-70
2021/04/29 09:27:12;;;;;;;3.80;3.47;;;21.30;44.80;;;;;;4998099;28;20546;-69
2021/04/29 09:29:49;;;;;;;4.00;3.70;;;21.40;44.90;;;;;;5011241;28;21472;-69
2021/04/29 09:32:22;;;;;;;3.35;3.00;;;21.40;44.80;;;;;;4991863;28;20412;-69
2021/04/29 09:34:48;;;;;;;3.70;3.40;;;21.50;44.80;;;;;;5006574;28;20431;-69
2021/04/29 09:37:14;;;;;;;3.37;3.07;;;21.50;44.70;;;;;;4983334;28;20428;-69
2021/04/29 09:39:41;;;;;;;3.70;3.30;;;21.50;44.60;;;;;;4999136;28;20425;-69
2021/04/29 09:42:07;;;;;;;3.80;3.50;;;21.50;44.60;;;;;;4984499;28;20419;-69
2021/04/29 09:44:35;;;;;;;3.28;3.00;;;21.50;44.60;;;;;;4998697;28;20422;-70
2021/04/29 09:47:02;;;;;;;3.22;2.92;;;21.50;44.70;;;;;;4987980;28;20470;-67
2021/04/29 09:49:30;;;;;;;3.00;2.90;;;21.50;44.80;;;;;;5011263;28;20422;-71
2021/04/29 09:51:58;;;;;;;3.10;2.90;;;21.40;44.90;;;;;;4998419;28;20498;-70
2021/04/29 09:54:25;;;;;;;2.83;2.63;;;21.30;45.00;;;;;;5004752;28;20424;-69
2021/04/29 09:56:56;;;;;;;3.08;2.80;;;21.30;45.10;;;;;;5004170;28;20842;-69
2021/04/29 09:59:22;;;;;;;2.85;2.70;;;21.20;45.10;;;;;;5004412;28;20443;-69
2021/04/29 10:01:49;;;;;;;3.23;3.03;;;21.20;45.20;;;;;;4994931;28;20425;-69
2021/04/29 10:04:15;;;;;;;3.05;2.85;;;21.20;45.30;;;;;;5002263;28;20419;-70
2021/04/29 10:06:42;;;;;;;3.15;2.95;;;21.20;45.30;;;;;;5006025;28;20449;-69
2021/04/29 10:09:08;;;;;;;3.20;2.90;;;21.20;45.30;;;;;;4999973;28;21770;-69
2021/04/29 10:11:34;;;;;;;3.10;2.90;;;21.30;45.20;;;;;;5004355;28;20414;-67
2021/04/29 10:14:00;;;;;;;3.60;3.30;;;21.30;45.20;;;;;;4990867;28;20500;-69
2021/04/29 10:16:28;;;;;;;3.28;3.05;;;21.30;45.10;;;;;;4996001;28;20427;-69
2021/04/29 10:18:55;;;;;;;3.50;3.20;;;21.30;45.10;;;;;;4999656;28;20474;-69
2021/04/29 10:21:22;;;;;;;3.63;3.30;;;21.40;45.10;;;;;;5003921;28;20436;-69
2021/04/29 10:23:49;;;;;;;3.40;3.20;;;21.30;45.10;;;;;;4998796;28;20414;-69
2021/04/29 10:26:24;;;;;;;3.30;3.10;;;21.40;45.10;;;;;;5005238;28;20785;-69
2021/04/29 10:28:55;;;;;;;3.70;3.40;;;21.30;45.20;;;;;;5002852;28;20482;-69
2021/04/29 10:31:22;;;;;;;3.08;2.88;;;21.30;45.30;;;;;;5005869;28;20432;-68
2021/04/29 10:33:50;;;;;;;3.10;2.90;;;21.20;45.30;;;;;;5002851;28;20490;-69
2021/04/29 10:36:17;;;;;;;3.20;2.90;;;21.20;45.50;;;;;;5003121;28;20461;-69
2021/04/29 10:38:43;;;;;;;3.58;3.28;;;21.20;45.50;;;;;;5007239;28;20472;-70
2021/04/29 10:41:20;;;;;;;3.10;2.90;;;21.20;45.50;;;;;;4989979;28;21147;-69
2021/04/29 10:43:47;;;;;;;3.28;3.00;;;21.20;45.60;;;;;;4992343;28;20450;-68
2021/04/29 10:46:27;;;;;;;3.63;3.33;;;21.20;45.60;;;;;;4996412;28;20432;-67
2021/04/29 10:48:53;;;;;;;3.00;2.80;;;21.20;45.60;;;;;;5008804;28;20423;-69
2021/04/29 10:51:28;;;;;;;2.90;2.70;;;21.20;45.60;;;;;;4998886;28;20415;-69
2021/04/29 10:53:54;;;;;;;3.22;3.03;;;21.20;45.70;;;;;;4992872;28;20506;-68
2021/04/29 10:56:20;;;;;;;3.10;2.90;;;21.20;45.70;;;;;;5005694;28;21588;-67
2021/04/29 10:58:46;;;;;;;3.10;2.90;;;21.20;45.70;;;;;;4990508;28;20411;-69
2021/04/29 11:01:13;;;;;;;3.20;3.00;;;21.20;45.60;;;;;;4991184;28;21003;-69
2021/04/29 11:03:40;;;;;;;3.03;2.83;;;21.20;45.50;;;;;;4994195;28;20497;-69
2021/04/29 11:06:30;;;;;;;2.60;2.47;;;21.20;45.50;;;;;;4998646;28;21268;-69
2021/04/29 11:08:57;;;;;;;3.27;3.00;;;21.30;45.50;;;;;;5002736;28;20445;-69
2021/04/29 11:11:25;;;;;;;3.25;2.90;;;21.30;45.40;;;;;;4997187;28;20427;-68
2021/04/29 11:13:59;;;;;;;2.75;2.55;;;21.30;45.50;;;;;;4997864;28;20429;-69
2021/04/29 11:16:25;;;;;;;2.83;2.70;;;21.30;45.60;;;;;;5005447;28;20507;-69
2021/04/29 11:18:51;;;;;;;2.60;2.50;;;21.30;45.50;;;;;;5004421;28;20493;-69
2021/04/29 11:21:24;;;;;;;3.00;2.80;;;21.30;45.60;;;;;;5006550;28;21226;-69
2021/04/29 11:23:51;;;;;;;2.95;2.85;;;21.30;45.60;;;;;;4983869;28;20906;-69
2021/04/29 11:26:19;;;;;;;3.78;2.97;;;21.30;45.70;;;;;;4997391;28;20424;-69
2021/04/29 11:28:46;;;;;;;2.90;2.70;;;21.30;45.70;;;;;;5000409;28;20476;-68
2021/04/29 11:31:12;;;;;;;5.13;2.78;;;21.30;45.60;;;;;;4998779;28;20422;-68
2021/04/29 11:33:39;;;;;;;4.60;2.80;;;21.30;45.60;;;;;;4994960;28;20435;-69
2021/04/29 11:36:14;;;;;;;3.45;2.50;;;21.30;46.50;;;;;;4997468;28;20415;-68
2021/04/29 11:38:48;;;;;;;3.05;2.80;;;21.30;45.70;;;;;;4998306;28;20913;-69
2021/04/29 11:41:16;;;;;;;2.75;2.65;;;21.30;45.70;;;;;;4982624;28;20442;-67
2021/04/29 11:43:42;;;;;;;3.47;2.90;;;21.30;46.00;;;;;;4991598;28;20402;-69
2021/04/29 11:46:19;;;;;;;3.15;2.95;;;21.30;45.90;;;;;;5005833;28;20419;-70
2021/04/29 11:48:45;;;;;;;3.28;3.00;;;21.20;45.90;;;;;;4999733;28;20869;-69
2021/04/29 11:51:11;;;;;;;5.50;3.10;;;21.20;45.90;;;;;;5001439;28;20407;-68
2021/04/29 11:53:37;;;;;;;3.25;3.05;;;21.20;46.00;;;;;;4993822;28;21297;-69
2021/04/29 11:56:05;;;;;;;3.35;3.05;;;21.20;46.00;;;;;;4994565;28;20419;-68
2021/04/29 11:58:32;;;;;;;3.00;2.70;;;21.20;46.10;;;;;;4996919;28;20415;-69
2021/04/29 12:00:58;;;;;;;4.43;2.90;;;21.20;46.10;;;;;;5010104;28;20502;-67
2021/04/29 12:03:26;;;;;;;3.70;2.53;;;21.20;46.10;;;;;;5002366;28;20913;-69
2021/04/29 12:05:52;;;;;;;4.72;2.70;;;21.20;46.10;;;;;;5004731;28;20468;-70
2021/04/29 12:08:20;;;;;;;3.70;3.00;;;21.20;46.00;;;;;;5004366;28;20442;-70
2021/04/29 12:10:51;;;;;;;4.50;3.30;;;21.20;45.90;;;;;;5007736;28;20423;-70
2021/04/29 12:13:18;;;;;;;3.80;2.90;;;21.30;45.90;;;;;;4992484;28;20424;-69
2021/04/29 12:15:45;;;;;;;4.90;2.63;;;21.30;45.80;;;;;;5011549;28;20582;-70
2021/04/29 12:18:12;;;;;;;3.00;2.83;;;21.30;45.80;;;;;;5005331;28;20453;-69
2021/04/29 12:20:39;;;;;;;3.53;3.22;;;21.30;45.70;;;;;;5006574;28;20425;-69
2021/04/29 12:23:07;;;;;;;2.85;2.65;;;21.30;45.70;;;;;;4997712;28;21612;-69
2021/04/29 12:25:33;;;;;;;3.10;2.80;;;21.30;45.80;;;;;;5017161;28;21598;-70
2021/04/29 12:27:59;;;;;;;3.40;2.73;;;21.30;45.80;;;;;;5007447;28;20416;-70
2021/04/29 12:30:27;;;;;;;4.90;3.20;;;21.20;45.90;;;;;;5004032;28;20420;-70
2021/04/29 12:32:54;;;;;;;3.67;2.90;;;21.20;45.90;;;;;;4996382;28;20419;-70
2021/04/29 12:35:34;;;;;;;4.50;3.00;;;21.20;46.00;;;;;;4992430;28;21147;-69
2021/04/29 12:38:00;;;;;;;3.60;3.20;;;21.20;46.10;;;;;;5006355;28;20438;-70
2021/04/29 12:40:27;;;;;;;4.50;3.10;;;21.20;46.00;;;;;;5005256;28;20420;-70
2021/04/29 12:43:10;;;;;;;3.88;2.67;;;21.20;45.50;;;;;;5003805;28;20425;-69
2021/04/29 12:45:50;;;;;;;3.72;2.72;;;21.10;46.00;;;;;;5005164;28;20420;-70